sensor_id;sensor_type;location;lat;lon;timestamp;P1;durP1;ratioP1;P2;durP2;ratioP2
21030;SDS011;61072;47.808;7.636;2022-12-07T07:12:09;8.55;;;6.22;;
21030;SDS011;61072;47.808;7.636;2022-12-07T07:14:36;11.13;;;6.20;;
21030;SDS011;61072;47.808;7.636;2022-12-07T07:17:03;13.90;;;7.68;;
21030;SDS011;61072;47.808;7.636;2022-12-07T07:19:29;13.55;;;8.50;;
21030;SDS011;61072;47.808;7.636;2022-12-07T07:21:56;21.27;;;12.20;;
21030;SDS011;61072;47.808;7.636;2022-12-07T07:24:23;21.13;;;13.07;;
21030;SDS011;61072;47.808;7.636;2022-12-07T07:26:49;17.35;;;10.73;;
21030;SDS011;61072;47.808;7.636;2022-12-07T07:29:16;15.27;;;10.32;;
21030;SDS011;61072;47.808;7.636;2022-12-07T07:31:43;21.25;;;10.98;;
21030;SDS011;61072;47.808;7.636;2022-12-07T07:34:09;25.77;;;12.05;;
21030;SDS011;61072;47.808;7.636;2022-12-07T07:36:36;19.40;;;11.20;;
21030;SDS011;61072;47.808;7.636;2022-12-07T07:39:03;25.27;;;12.70;;
21030;SDS011;61072;47.808;7.636;2022-12-07T07:41:31;20.35;;;11.32;;
21030;SDS011;61072;47.808;7.636;2022-12-07T07:43:57;22.13;;;12.57;;
21030;SDS011;61072;47.808;7.636;2022-12-07T07:46:24;22.80;;;11.13;;
21030;SDS011;61072;47.808;7.636;2022-12-07T07:48:51;24.33;;;11.57;;
21030;SDS011;61072;47.808;7.636;2022-12-07T07:51:17;17.55;;;11.10;;
21030;SDS011;61072;47.808;7.636;2022-12-07T07:53:44;20.10;;;9.93;;
21030;SDS011;61072;47.808;7.636;2022-12-07T07:56:11;17.40;;;9.05;;
21030;SDS011;61072;47.808;7.636;2022-12-07T07:58:37;18.23;;;10.15;;
21030;SDS011;61072;47.808;7.636;2022-12-07T08:01:05;17.25;;;10.25;;
21030;SDS011;61072;47.808;7.636;2022-12-07T08:03:33;17.98;;;8.50;;
21030;SDS011;61072;47.808;7.636;2022-12-07T08:06:03;17.17;;;9.38;;
21030;SDS011;61072;47.808;7.636;2022-12-07T08:08:30;13.85;;;8.48;;
21030;SDS011;61072;47.808;7.636;2022-12-07T08:10:57;13.45;;;8.18;;
21030;SDS011;61072;47.808;7.636;2022-12-07T08:13:27;16.33;;;9.15;;
21030;SDS011;61072;47.808;7.636;2022-12-07T08:15:56;17.35;;;8.93;;
21030;SDS011;61072;47.808;7.636;2022-12-07T08:18:23;13.27;;;7.90;;
21030;SDS011;61072;47.808;7.636;2022-12-07T08:20:50;14.32;;;7.53;;
21030;SDS011;61072;47.808;7.636;2022-12-07T08:23:17;11.13;;;7.28;;
21030;SDS011;61072;47.808;7.636;2022-12-07T08:25:43;11.52;;;6.47;;
21030;SDS011;61072;47.808;7.636;2022-12-07T08:28:10;12.90;;;7.45;;
21030;SDS011;61072;47.808;7.636;2022-12-07T08:30:37;11.52;;;7.20;;
21030;SDS011;61072;47.808;7.636;2022-12-07T08:33:03;12.23;;;7.88;;
21030;SDS011;61072;47.808;7.636;2022-12-07T08:35:32;13.40;;;7.28;;
21030;SDS011;61072;47.808;7.636;2022-12-07T08:37:59;13.00;;;8.23;;
21030;SDS011;61072;47.808;7.636;2022-12-07T08:40:28;21.73;;;11.77;;
21030;SDS011;61072;47.808;7.636;2022-12-07T08:42:55;21.42;;;12.25;;
21030;SDS011;61072;47.808;7.636;2022-12-07T08:45:22;19.55;;;11.65;;
21030;SDS011;61072;47.808;7.636;2022-12-07T08:50:24;19.08;;;11.18;;
21030;SDS011;61072;47.808;7.636;2022-12-07T08:52:52;22.70;;;12.77;;
21030;SDS011;61072;47.808;7.636;2022-12-07T08:55:21;25.13;;;12.63;;
21030;SDS011;61072;47.808;7.636;2022-12-07T08:57:48;21.17;;;11.77;;
21030;SDS011;61072;47.808;7.636;2022-12-07T09:00:15;20.80;;;12.68;;
21030;SDS011;61072;47.808;7.636;2022-12-07T09:02:45;23.50;;;12.70;;
21030;SDS011;61072;47.808;7.636;2022-12-07T09:05:12;28.98;;;13.75;;
21030;SDS011;61072;47.808;7.636;2022-12-07T09:07:46;26.52;;;12.90;;
21030;SDS011;61072;47.808;7.636;2022-12-07T09:10:16;25.73;;;12.80;;
21030;SDS011;61072;47.808;7.636;2022-12-07T09:12:43;24.85;;;13.15;;
21030;SDS011;61072;47.808;7.636;2022-12-07T09:15:10;23.10;;;11.52;;
21030;SDS011;61072;47.808;7.636;2022-12-07T09:17:36;18.83;;;10.98;;
21030;SDS011;61072;47.808;7.636;2022-12-07T09:20:04;18.55;;;10.50;;
21030;SDS011;61072;47.808;7.636;2022-12-07T09:22:32;19.88;;;11.07;;
21030;SDS011;61072;47.808;7.636;2022-12-07T09:24:59;18.58;;;9.77;;
21030;SDS011;61072;47.808;7.636;2022-12-07T09:27:26;15.48;;;9.57;;
21030;SDS011;61072;47.808;7.636;2022-12-07T09:29:53;17.10;;;9.85;;
21030;SDS011;61072;47.808;7.636;2022-12-07T09:32:20;19.80;;;10.38;;
21030;SDS011;61072;47.808;7.636;2022-12-07T09:34:47;19.27;;;10.32;;
21030;SDS011;61072;47.808;7.636;2022-12-07T09:37:15;18.40;;;10.50;;
21030;SDS011;61072;47.808;7.636;2022-12-07T09:39:41;20.65;;;11.13;;
21030;SDS011;61072;47.808;7.636;2022-12-07T09:42:25;17.35;;;10.07;;
21030;SDS011;61072;47.808;7.636;2022-12-07T09:44:59;18.15;;;10.63;;
21030;SDS011;61072;47.808;7.636;2022-12-07T09:47:27;17.42;;;10.38;;
21030;SDS011;61072;47.808;7.636;2022-12-07T09:49:57;17.45;;;9.10;;
21030;SDS011;61072;47.808;7.636;2022-12-07T09:52:46;16.27;;;9.90;;
21030;SDS011;61072;47.808;7.636;2022-12-07T09:55:15;16.60;;;9.52;;
21030;SDS011;61072;47.808;7.636;2022-12-07T09:57:44;17.10;;;10.00;;
21030;SDS011;61072;47.808;7.636;2022-12-07T10:00:16;14.18;;;9.50;;
21030;SDS011;61072;47.808;7.636;2022-12-07T10:02:46;13.23;;;8.68;;
21030;SDS011;61072;47.808;7.636;2022-12-07T10:05:36;15.93;;;9.13;;
21030;SDS011;61072;47.808;7.636;2022-12-07T10:08:10;15.93;;;9.40;;
21030;SDS011;61072;47.808;7.636;2022-12-07T10:10:38;11.88;;;8.10;;
21030;SDS011;61072;47.808;7.636;2022-12-07T10:13:07;12.88;;;8.07;;
21030;SDS011;61072;47.808;7.636;2022-12-07T10:18:18;12.38;;;7.35;;
21030;SDS011;61072;47.808;7.636;2022-12-07T10:23:38;13.55;;;7.15;;
21030;SDS011;61072;47.808;7.636;2022-12-07T10:28:56;9.38;;;6.22;;
21030;SDS011;61072;47.808;7.636;2022-12-07T10:31:26;8.18;;;5.43;;
21030;SDS011;61072;47.808;7.636;2022-12-07T10:33:54;8.40;;;5.45;;
21030;SDS011;61072;47.808;7.636;2022-12-07T10:42:02;8.77;;;5.35;;
21030;SDS011;61072;47.808;7.636;2022-12-07T10:44:31;7.38;;;4.90;;
21030;SDS011;61072;47.808;7.636;2022-12-07T10:47:05;13.57;;;6.75;;
21030;SDS011;61072;47.808;7.636;2022-12-07T10:50:02;8.85;;;6.00;;
21030;SDS011;61072;47.808;7.636;2022-12-07T11:01:04;7.05;;;4.75;;
21030;SDS011;61072;47.808;7.636;2022-12-07T11:03:55;8.40;;;5.68;;
21030;SDS011;61072;47.808;7.636;2022-12-07T11:07:06;13.05;;;6.80;;
21030;SDS011;61072;47.808;7.636;2022-12-07T11:12:45;11.75;;;6.55;;
21030;SDS011;61072;47.808;7.636;2022-12-07T11:15:28;7.78;;;5.53;;
21030;SDS011;61072;47.808;7.636;2022-12-07T11:21:06;8.55;;;5.53;;
21030;SDS011;61072;47.808;7.636;2022-12-07T11:24:04;6.60;;;4.30;;
21030;SDS011;61072;47.808;7.636;2022-12-07T11:32:41;8.07;;;4.33;;
21030;SDS011;61072;47.808;7.636;2022-12-07T11:35:39;7.63;;;4.88;;
21030;SDS011;61072;47.808;7.636;2022-12-07T11:38:24;7.20;;;3.72;;
21030;SDS011;61072;47.808;7.636;2022-12-07T11:40:59;5.47;;;3.85;;
21030;SDS011;61072;47.808;7.636;2022-12-07T11:43:59;5.40;;;3.78;;
21030;SDS011;61072;47.808;7.636;2022-12-07T11:46:44;5.45;;;3.65;;
21030;SDS011;61072;47.808;7.636;2022-12-07T11:49:19;5.65;;;3.88;;
21030;SDS011;61072;47.808;7.636;2022-12-07T11:52:04;3.50;;;2.67;;
21030;SDS011;61072;47.808;7.636;2022-12-07T11:54:35;4.82;;;3.42;;
21030;SDS011;61072;47.808;7.636;2022-12-07T11:57:10;3.90;;;2.45;;
21030;SDS011;61072;47.808;7.636;2022-12-07T11:59:46;3.72;;;2.58;;
21030;SDS011;61072;47.808;7.636;2022-12-07T12:02:19;3.25;;;2.25;;
21030;SDS011;61072;47.808;7.636;2022-12-07T12:05:06;6.05;;;2.58;;
21030;SDS011;61072;47.808;7.636;2022-12-07T12:07:41;5.53;;;3.42;;
21030;SDS011;61072;47.808;7.636;2022-12-07T12:10:37;4.57;;;2.80;;
21030;SDS011;61072;47.808;7.636;2022-12-07T12:21:47;6.75;;;4.13;;
21030;SDS011;61072;47.808;7.636;2022-12-07T12:24:24;5.80;;;3.53;;
21030;SDS011;61072;47.808;7.636;2022-12-07T12:26:57;5.63;;;3.70;;
21030;SDS011;61072;47.808;7.636;2022-12-07T12:29:37;5.38;;;3.50;;
21030;SDS011;61072;47.808;7.636;2022-12-07T12:32:10;3.80;;;2.78;;
21030;SDS011;61072;47.808;7.636;2022-12-07T12:37:40;5.97;;;3.40;;
21030;SDS011;61072;47.808;7.636;2022-12-07T12:42:48;4.30;;;3.00;;
21030;SDS011;61072;47.808;7.636;2022-12-07T12:50:31;5.18;;;2.55;;
21030;SDS011;61072;47.808;7.636;2022-12-07T12:53:03;4.82;;;3.50;;
21030;SDS011;61072;47.808;7.636;2022-12-07T13:00:46;7.35;;;4.15;;
21030;SDS011;61072;47.808;7.636;2022-12-07T13:03:22;6.00;;;3.67;;
21030;SDS011;61072;47.808;7.636;2022-12-07T13:08:58;4.63;;;2.75;;
21030;SDS011;61072;47.808;7.636;2022-12-07T13:11:35;3.75;;;2.75;;
21030;SDS011;61072;47.808;7.636;2022-12-07T13:17:10;6.30;;;3.53;;
21030;SDS011;61072;47.808;7.636;2022-12-07T13:22:51;5.80;;;3.28;;
21030;SDS011;61072;47.808;7.636;2022-12-07T13:27:55;4.43;;;3.38;;
21030;SDS011;61072;47.808;7.636;2022-12-07T13:30:27;4.20;;;3.25;;
21030;SDS011;61072;47.808;7.636;2022-12-07T13:32:58;3.85;;;2.65;;
21030;SDS011;61072;47.808;7.636;2022-12-07T13:35:32;5.10;;;3.35;;
21030;SDS011;61072;47.808;7.636;2022-12-07T13:38:15;4.20;;;2.15;;
21030;SDS011;61072;47.808;7.636;2022-12-07T13:41:10;4.80;;;2.83;;
21030;SDS011;61072;47.808;7.636;2022-12-07T13:46:43;4.10;;;3.28;;
21030;SDS011;61072;47.808;7.636;2022-12-07T13:49:30;5.60;;;3.83;;
21030;SDS011;61072;47.808;7.636;2022-12-07T13:54:48;4.65;;;3.00;;
21030;SDS011;61072;47.808;7.636;2022-12-07T13:57:22;4.03;;;2.78;;
21030;SDS011;61072;47.808;7.636;2022-12-07T13:59:50;4.75;;;3.03;;
21030;SDS011;61072;47.808;7.636;2022-12-07T14:02:29;4.88;;;2.15;;
21030;SDS011;61072;47.808;7.636;2022-12-07T14:05:14;2.50;;;1.70;;
21030;SDS011;61072;47.808;7.636;2022-12-07T14:07:56;2.50;;;1.73;;
21030;SDS011;61072;47.808;7.636;2022-12-07T14:10:26;5.90;;;2.90;;
21030;SDS011;61072;47.808;7.636;2022-12-07T14:12:57;3.70;;;2.00;;
21030;SDS011;61072;47.808;7.636;2022-12-07T14:15:28;2.58;;;1.90;;
21030;SDS011;61072;47.808;7.636;2022-12-07T14:17:58;3.97;;;1.67;;
21030;SDS011;61072;47.808;7.636;2022-12-07T14:23:02;2.67;;;1.40;;
21030;SDS011;61072;47.808;7.636;2022-12-07T14:25:47;1.95;;;1.58;;
21030;SDS011;61072;47.808;7.636;2022-12-07T14:30:54;2.42;;;1.27;;
21030;SDS011;61072;47.808;7.636;2022-12-07T14:33:21;2.10;;;1.60;;
21030;SDS011;61072;47.808;7.636;2022-12-07T14:35:49;2.55;;;1.70;;
21030;SDS011;61072;47.808;7.636;2022-12-07T14:38:15;2.13;;;1.88;;
21030;SDS011;61072;47.808;7.636;2022-12-07T14:40:44;4.00;;;2.45;;
21030;SDS011;61072;47.808;7.636;2022-12-07T14:43:12;4.15;;;2.30;;
21030;SDS011;61072;47.808;7.636;2022-12-07T14:45:40;2.80;;;2.27;;
21030;SDS011;61072;47.808;7.636;2022-12-07T14:48:09;8.23;;;2.30;;
21030;SDS011;61072;47.808;7.636;2022-12-07T14:50:58;3.88;;;2.47;;
21030;SDS011;61072;47.808;7.636;2022-12-07T14:53:46;3.03;;;2.08;;
21030;SDS011;61072;47.808;7.636;2022-12-07T14:56:22;4.82;;;3.03;;
21030;SDS011;61072;47.808;7.636;2022-12-07T14:58:49;5.47;;;3.05;;
21030;SDS011;61072;47.808;7.636;2022-12-07T15:01:16;2.70;;;2.20;;
21030;SDS011;61072;47.808;7.636;2022-12-07T15:03:43;3.72;;;2.28;;
21030;SDS011;61072;47.808;7.636;2022-12-07T15:06:10;6.35;;;2.60;;
21030;SDS011;61072;47.808;7.636;2022-12-07T15:08:41;3.97;;;2.72;;
21030;SDS011;61072;47.808;7.636;2022-12-07T15:11:10;4.88;;;2.63;;
21030;SDS011;61072;47.808;7.636;2022-12-07T15:13:39;10.57;;;2.60;;
21030;SDS011;61072;47.808;7.636;2022-12-07T15:16:25;9.02;;;3.03;;
21030;SDS011;61072;47.808;7.636;2022-12-07T15:18:52;6.60;;;3.50;;
21030;SDS011;61072;47.808;7.636;2022-12-07T15:21:39;5.93;;;2.97;;
21030;SDS011;61072;47.808;7.636;2022-12-07T15:24:06;6.93;;;3.28;;
21030;SDS011;61072;47.808;7.636;2022-12-07T15:26:34;4.65;;;2.30;;
21030;SDS011;61072;47.808;7.636;2022-12-07T15:29:00;10.50;;;4.13;;
21030;SDS011;61072;47.808;7.636;2022-12-07T15:31:27;20.40;;;7.55;;
21030;SDS011;61072;47.808;7.636;2022-12-07T15:34:14;11.10;;;4.75;;
21030;SDS011;61072;47.808;7.636;2022-12-07T15:36:40;8.10;;;5.30;;
21030;SDS011;61072;47.808;7.636;2022-12-07T15:39:08;8.02;;;4.22;;
21030;SDS011;61072;47.808;7.636;2022-12-07T15:41:40;7.65;;;4.93;;
21030;SDS011;61072;47.808;7.636;2022-12-07T15:44:09;7.28;;;4.60;;
21030;SDS011;61072;47.808;7.636;2022-12-07T15:46:56;8.32;;;3.80;;
21030;SDS011;61072;47.808;7.636;2022-12-07T15:49:23;9.05;;;4.38;;
21030;SDS011;61072;47.808;7.636;2022-12-07T15:51:50;7.10;;;4.18;;
21030;SDS011;61072;47.808;7.636;2022-12-07T15:54:27;7.68;;;3.95;;
21030;SDS011;61072;47.808;7.636;2022-12-07T15:56:55;5.55;;;4.30;;
21030;SDS011;61072;47.808;7.636;2022-12-07T15:59:22;9.00;;;5.30;;
21030;SDS011;61072;47.808;7.636;2022-12-07T16:01:49;13.00;;;6.82;;
21030;SDS011;61072;47.808;7.636;2022-12-07T16:04:17;9.73;;;6.03;;
21030;SDS011;61072;47.808;7.636;2022-12-07T16:06:43;8.88;;;5.22;;
21030;SDS011;61072;47.808;7.636;2022-12-07T16:09:10;7.13;;;4.78;;
21030;SDS011;61072;47.808;7.636;2022-12-07T16:11:37;8.95;;;5.20;;
21030;SDS011;61072;47.808;7.636;2022-12-07T16:14:04;7.43;;;4.70;;
21030;SDS011;61072;47.808;7.636;2022-12-07T16:16:30;10.13;;;4.32;;
21030;SDS011;61072;47.808;7.636;2022-12-07T16:18:57;7.03;;;4.57;;
21030;SDS011;61072;47.808;7.636;2022-12-07T16:21:24;7.30;;;4.65;;
21030;SDS011;61072;47.808;7.636;2022-12-07T16:23:51;8.80;;;4.63;;
21030;SDS011;61072;47.808;7.636;2022-12-07T16:26:19;9.25;;;4.28;;
21030;SDS011;61072;47.808;7.636;2022-12-07T16:28:48;5.72;;;3.63;;
21030;SDS011;61072;47.808;7.636;2022-12-07T16:31:17;6.80;;;3.80;;
21030;SDS011;61072;47.808;7.636;2022-12-07T16:36:13;9.43;;;4.10;;
21030;SDS011;61072;47.808;7.636;2022-12-07T16:39:02;4.95;;;3.65;;
21030;SDS011;61072;47.808;7.636;2022-12-07T16:41:29;8.02;;;4.53;;
21030;SDS011;61072;47.808;7.636;2022-12-07T16:43:56;5.70;;;4.20;;
21030;SDS011;61072;47.808;7.636;2022-12-07T16:46:23;7.03;;;5.32;;
21030;SDS011;61072;47.808;7.636;2022-12-07T16:48:49;7.35;;;4.60;;
21030;SDS011;61072;47.808;7.636;2022-12-07T16:51:16;7.40;;;4.60;;
21030;SDS011;61072;47.808;7.636;2022-12-07T16:53:43;8.40;;;4.75;;
21030;SDS011;61072;47.808;7.636;2022-12-07T16:56:13;6.88;;;4.40;;
21030;SDS011;61072;47.808;7.636;2022-12-07T16:58:42;6.32;;;3.75;;
21030;SDS011;61072;47.808;7.636;2022-12-07T17:01:09;6.95;;;4.30;;
21030;SDS011;61072;47.808;7.636;2022-12-07T17:03:55;6.75;;;3.72;;
21030;SDS011;61072;47.808;7.636;2022-12-07T17:06:24;6.60;;;4.40;;
21030;SDS011;61072;47.808;7.636;2022-12-07T17:08:53;8.13;;;4.25;;
21030;SDS011;61072;47.808;7.636;2022-12-07T17:11:25;4.88;;;3.60;;
21030;SDS011;61072;47.808;7.636;2022-12-07T17:13:53;7.50;;;3.88;;
21030;SDS011;61072;47.808;7.636;2022-12-07T17:16:39;6.75;;;3.80;;
21030;SDS011;61072;47.808;7.636;2022-12-07T17:19:10;6.63;;;3.97;;
21030;SDS011;61072;47.808;7.636;2022-12-07T17:21:38;5.13;;;3.58;;
21030;SDS011;61072;47.808;7.636;2022-12-07T17:24:06;5.70;;;3.58;;
21030;SDS011;61072;47.808;7.636;2022-12-07T17:26:35;6.53;;;3.58;;
21030;SDS011;61072;47.808;7.636;2022-12-07T17:29:03;4.85;;;3.42;;
21030;SDS011;61072;47.808;7.636;2022-12-07T17:31:31;5.20;;;3.67;;
21030;SDS011;61072;47.808;7.636;2022-12-07T17:33:58;7.40;;;4.53;;
21030;SDS011;61072;47.808;7.636;2022-12-07T17:36:26;6.40;;;3.70;;
21030;SDS011;61072;47.808;7.636;2022-12-07T17:38:54;7.28;;;4.47;;
21030;SDS011;61072;47.808;7.636;2022-12-07T17:44:07;15.48;;;5.80;;
21030;SDS011;61072;47.808;7.636;2022-12-07T17:46:38;8.32;;;5.38;;
21030;SDS011;61072;47.808;7.636;2022-12-07T17:49:05;9.25;;;6.03;;
21030;SDS011;61072;47.808;7.636;2022-12-07T17:51:32;8.63;;;4.78;;
21030;SDS011;61072;47.808;7.636;2022-12-07T17:54:18;10.57;;;5.60;;
21030;SDS011;61072;47.808;7.636;2022-12-07T17:56:45;12.55;;;6.20;;
21030;SDS011;61072;47.808;7.636;2022-12-07T17:59:12;12.40;;;6.32;;
21030;SDS011;61072;47.808;7.636;2022-12-07T18:01:39;11.32;;;6.45;;
21030;SDS011;61072;47.808;7.636;2022-12-07T18:04:06;10.80;;;6.55;;
21030;SDS011;61072;47.808;7.636;2022-12-07T18:06:33;9.48;;;6.03;;
21030;SDS011;61072;47.808;7.636;2022-12-07T18:09:00;8.25;;;5.03;;
21030;SDS011;61072;47.808;7.636;2022-12-07T18:11:28;9.05;;;5.55;;
21030;SDS011;61072;47.808;7.636;2022-12-07T18:13:55;10.63;;;6.85;;
21030;SDS011;61072;47.808;7.636;2022-12-07T18:16:23;11.63;;;7.35;;
21030;SDS011;61072;47.808;7.636;2022-12-07T18:21:20;11.45;;;6.65;;
21030;SDS011;61072;47.808;7.636;2022-12-07T18:23:50;10.10;;;6.97;;
21030;SDS011;61072;47.808;7.636;2022-12-07T18:26:19;10.57;;;6.70;;
21030;SDS011;61072;47.808;7.636;2022-12-07T18:28:47;12.15;;;7.07;;
21030;SDS011;61072;47.808;7.636;2022-12-07T18:31:14;14.93;;;8.15;;
21030;SDS011;61072;47.808;7.636;2022-12-07T18:33:42;11.82;;;7.80;;
21030;SDS011;61072;47.808;7.636;2022-12-07T18:36:11;14.88;;;6.90;;
21030;SDS011;61072;47.808;7.636;2022-12-07T18:38:39;13.98;;;8.13;;
21030;SDS011;61072;47.808;7.636;2022-12-07T18:41:07;13.38;;;7.30;;
21030;SDS011;61072;47.808;7.636;2022-12-07T18:43:35;13.38;;;7.38;;
21030;SDS011;61072;47.808;7.636;2022-12-07T18:46:08;10.27;;;6.30;;
21030;SDS011;61072;47.808;7.636;2022-12-07T18:48:39;9.73;;;5.50;;
21030;SDS011;61072;47.808;7.636;2022-12-07T18:51:06;9.13;;;6.00;;
21030;SDS011;61072;47.808;7.636;2022-12-07T18:53:34;9.50;;;5.80;;
21030;SDS011;61072;47.808;7.636;2022-12-07T18:56:12;13.32;;;5.97;;
21030;SDS011;61072;47.808;7.636;2022-12-07T18:58:49;10.05;;;6.22;;
21030;SDS011;61072;47.808;7.636;2022-12-07T19:01:36;10.00;;;6.10;;
21030;SDS011;61072;47.808;7.636;2022-12-07T19:04:03;15.10;;;6.93;;
21030;SDS011;61072;47.808;7.636;2022-12-07T19:06:30;11.63;;;6.28;;
21030;SDS011;61072;47.808;7.636;2022-12-07T19:08:58;13.82;;;6.22;;
21030;SDS011;61072;47.808;7.636;2022-12-07T19:11:27;11.80;;;5.88;;
21030;SDS011;61072;47.808;7.636;2022-12-07T19:14:28;13.07;;;7.18;;
21030;SDS011;61072;47.808;7.636;2022-12-07T19:16:58;11.15;;;6.40;;
21030;SDS011;61072;47.808;7.636;2022-12-07T19:19:31;11.35;;;6.47;;
21030;SDS011;61072;47.808;7.636;2022-12-07T19:22:00;12.13;;;6.38;;
21030;SDS011;61072;47.808;7.636;2022-12-07T19:24:27;11.00;;;6.28;;
21030;SDS011;61072;47.808;7.636;2022-12-07T19:26:54;9.82;;;5.90;;
21030;SDS011;61072;47.808;7.636;2022-12-07T19:29:21;11.02;;;6.88;;
21030;SDS011;61072;47.808;7.636;2022-12-07T19:31:48;12.13;;;6.07;;
21030;SDS011;61072;47.808;7.636;2022-12-07T19:34:15;9.38;;;5.53;;
21030;SDS011;61072;47.808;7.636;2022-12-07T19:36:43;10.93;;;5.85;;
21030;SDS011;61072;47.808;7.636;2022-12-07T19:39:11;8.50;;;5.13;;
21030;SDS011;61072;47.808;7.636;2022-12-07T19:41:41;7.93;;;4.65;;
21030;SDS011;61072;47.808;7.636;2022-12-07T19:44:11;8.57;;;4.80;;
21030;SDS011;61072;47.808;7.636;2022-12-07T19:46:43;9.77;;;5.75;;
21030;SDS011;61072;47.808;7.636;2022-12-07T19:49:12;8.65;;;4.70;;
21030;SDS011;61072;47.808;7.636;2022-12-07T19:51:43;10.50;;;4.47;;
21030;SDS011;61072;47.808;7.636;2022-12-07T19:54:11;20.98;;;11.00;;
21030;SDS011;61072;47.808;7.636;2022-12-07T19:56:40;18.55;;;8.35;;
21030;SDS011;61072;47.808;7.636;2022-12-07T19:59:08;10.68;;;6.43;;
21030;SDS011;61072;47.808;7.636;2022-12-07T20:01:35;6.00;;;5.40;;
21030;SDS011;61072;47.808;7.636;2022-12-07T20:04:03;10.18;;;7.07;;
21030;SDS011;61072;47.808;7.636;2022-12-07T20:06:31;9.40;;;6.88;;
21030;SDS011;61072;47.808;7.636;2022-12-07T20:08:58;7.13;;;6.00;;
21030;SDS011;61072;47.808;7.636;2022-12-07T20:11:25;9.70;;;5.47;;
21030;SDS011;61072;47.808;7.636;2022-12-07T20:14:10;7.57;;;5.47;;
21030;SDS011;61072;47.808;7.636;2022-12-07T20:16:38;5.80;;;3.67;;
21030;SDS011;61072;47.808;7.636;2022-12-07T20:19:11;7.70;;;4.15;;
21030;SDS011;61072;47.808;7.636;2022-12-07T20:21:39;5.93;;;3.38;;
21030;SDS011;61072;47.808;7.636;2022-12-07T20:24:08;8.38;;;4.07;;
21030;SDS011;61072;47.808;7.636;2022-12-07T20:26:37;8.18;;;4.75;;
21030;SDS011;61072;47.808;7.636;2022-12-07T20:29:07;5.82;;;3.50;;
21030;SDS011;61072;47.808;7.636;2022-12-07T20:31:42;4.97;;;3.20;;
21030;SDS011;61072;47.808;7.636;2022-12-07T20:34:10;4.47;;;3.05;;
21030;SDS011;61072;47.808;7.636;2022-12-07T20:36:37;5.65;;;3.80;;
21030;SDS011;61072;47.808;7.636;2022-12-07T20:39:03;9.25;;;4.22;;
21030;SDS011;61072;47.808;7.636;2022-12-07T20:41:31;5.53;;;3.35;;
21030;SDS011;61072;47.808;7.636;2022-12-07T20:44:17;6.47;;;4.03;;
21030;SDS011;61072;47.808;7.636;2022-12-07T20:46:44;7.20;;;4.07;;
21030;SDS011;61072;47.808;7.636;2022-12-07T20:49:13;7.78;;;4.20;;
21030;SDS011;61072;47.808;7.636;2022-12-07T20:51:42;5.35;;;3.75;;
21030;SDS011;61072;47.808;7.636;2022-12-07T20:54:09;8.60;;;5.00;;
21030;SDS011;61072;47.808;7.636;2022-12-07T20:56:37;7.93;;;4.47;;
21030;SDS011;61072;47.808;7.636;2022-12-07T20:59:04;8.95;;;5.70;;
21030;SDS011;61072;47.808;7.636;2022-12-07T21:01:34;11.35;;;6.60;;
21030;SDS011;61072;47.808;7.636;2022-12-07T21:04:02;11.88;;;8.00;;
21030;SDS011;61072;47.808;7.636;2022-12-07T21:06:29;11.82;;;7.80;;
21030;SDS011;61072;47.808;7.636;2022-12-07T21:08:57;13.55;;;5.75;;
21030;SDS011;61072;47.808;7.636;2022-12-07T21:11:25;9.52;;;5.40;;
21030;SDS011;61072;47.808;7.636;2022-12-07T21:13:53;11.95;;;5.78;;
21030;SDS011;61072;47.808;7.636;2022-12-07T21:16:21;13.48;;;7.28;;
21030;SDS011;61072;47.808;7.636;2022-12-07T21:18:49;16.52;;;9.45;;
21030;SDS011;61072;47.808;7.636;2022-12-07T21:21:17;24.55;;;14.25;;
21030;SDS011;61072;47.808;7.636;2022-12-07T21:23:48;28.92;;;15.45;;
21030;SDS011;61072;47.808;7.636;2022-12-07T21:26:25;30.73;;;17.27;;
21030;SDS011;61072;47.808;7.636;2022-12-07T21:28:53;31.95;;;14.40;;
21030;SDS011;61072;47.808;7.636;2022-12-07T21:31:21;25.92;;;14.30;;
21030;SDS011;61072;47.808;7.636;2022-12-07T21:33:48;28.58;;;15.10;;
21030;SDS011;61072;47.808;7.636;2022-12-07T21:36:16;17.40;;;10.07;;
21030;SDS011;61072;47.808;7.636;2022-12-07T21:38:47;18.35;;;9.95;;
21030;SDS011;61072;47.808;7.636;2022-12-07T21:43:51;11.30;;;6.07;;
21030;SDS011;61072;47.808;7.636;2022-12-07T21:46:18;8.45;;;5.22;;
21030;SDS011;61072;47.808;7.636;2022-12-07T21:48:53;12.57;;;6.10;;
21030;SDS011;61072;47.808;7.636;2022-12-07T21:51:21;11.05;;;5.60;;
21030;SDS011;61072;47.808;7.636;2022-12-07T21:53:50;12.27;;;7.00;;
21030;SDS011;61072;47.808;7.636;2022-12-07T21:56:18;11.68;;;6.65;;
21030;SDS011;61072;47.808;7.636;2022-12-07T21:58:47;11.95;;;6.45;;
21030;SDS011;61072;47.808;7.636;2022-12-07T22:01:18;12.57;;;6.55;;
21030;SDS011;61072;47.808;7.636;2022-12-07T22:03:45;22.88;;;11.90;;
21030;SDS011;61072;47.808;7.636;2022-12-07T22:06:13;10.50;;;6.60;;
21030;SDS011;61072;47.808;7.636;2022-12-07T22:08:42;12.18;;;7.15;;
21030;SDS011;61072;47.808;7.636;2022-12-07T22:11:10;11.82;;;7.82;;
21030;SDS011;61072;47.808;7.636;2022-12-07T22:13:38;9.65;;;5.43;;
21030;SDS011;61072;47.808;7.636;2022-12-07T22:16:24;13.73;;;5.70;;
21030;SDS011;61072;47.808;7.636;2022-12-07T22:18:51;9.95;;;5.88;;
21030;SDS011;61072;47.808;7.636;2022-12-07T22:21:19;11.15;;;5.82;;
21030;SDS011;61072;47.808;7.636;2022-12-07T22:23:46;10.45;;;5.63;;
21030;SDS011;61072;47.808;7.636;2022-12-07T22:26:13;9.85;;;5.00;;
21030;SDS011;61072;47.808;7.636;2022-12-07T22:28:47;8.60;;;5.35;;
21030;SDS011;61072;47.808;7.636;2022-12-07T22:31:15;7.45;;;4.35;;
21030;SDS011;61072;47.808;7.636;2022-12-07T22:33:43;9.25;;;5.35;;
21030;SDS011;61072;47.808;7.636;2022-12-07T22:36:10;8.15;;;5.05;;
21030;SDS011;61072;47.808;7.636;2022-12-07T22:38:37;8.30;;;4.63;;
21030;SDS011;61072;47.808;7.636;2022-12-07T22:41:15;10.00;;;5.55;;
21030;SDS011;61072;47.808;7.636;2022-12-07T22:43:56;9.73;;;5.93;;
21030;SDS011;61072;47.808;7.636;2022-12-07T22:46:24;8.73;;;5.40;;
21030;SDS011;61072;47.808;7.636;2022-12-07T22:48:51;9.77;;;5.05;;
21030;SDS011;61072;47.808;7.636;2022-12-07T22:51:20;7.43;;;4.25;;
21030;SDS011;61072;47.808;7.636;2022-12-07T22:53:51;8.13;;;4.00;;
21030;SDS011;61072;47.808;7.636;2022-12-07T22:56:18;5.32;;;3.85;;
21030;SDS011;61072;47.808;7.636;2022-12-07T22:58:46;8.15;;;4.72;;
21030;SDS011;61072;47.808;7.636;2022-12-07T23:01:14;9.32;;;5.25;;
21030;SDS011;61072;47.808;7.636;2022-12-07T23:03:42;8.98;;;5.43;;
21030;SDS011;61072;47.808;7.636;2022-12-07T23:06:10;9.20;;;4.78;;
21030;SDS011;61072;47.808;7.636;2022-12-07T23:08:40;15.23;;;8.93;;
21030;SDS011;61072;47.808;7.636;2022-12-07T23:11:07;11.57;;;7.50;;
21030;SDS011;61072;47.808;7.636;2022-12-07T23:14:03;5.70;;;3.70;;
21030;SDS011;61072;47.808;7.636;2022-12-07T23:16:34;6.03;;;3.65;;
21030;SDS011;61072;47.808;7.636;2022-12-07T23:19:01;6.78;;;3.60;;
21030;SDS011;61072;47.808;7.636;2022-12-07T23:21:27;7.03;;;4.05;;
21030;SDS011;61072;47.808;7.636;2022-12-07T23:23:54;9.10;;;4.60;;
21030;SDS011;61072;47.808;7.636;2022-12-07T23:26:21;6.00;;;4.00;;
21030;SDS011;61072;47.808;7.636;2022-12-07T23:28:47;6.40;;;3.63;;
21030;SDS011;61072;47.808;7.636;2022-12-07T23:31:15;8.23;;;4.45;;
21030;SDS011;61072;47.808;7.636;2022-12-07T23:33:43;8.02;;;4.53;;
21030;SDS011;61072;47.808;7.636;2022-12-07T23:36:14;9.77;;;5.35;;
21030;SDS011;61072;47.808;7.636;2022-12-07T23:38:48;7.80;;;4.22;;
21030;SDS011;61072;47.808;7.636;2022-12-07T23:41:18;6.40;;;4.03;;
21030;SDS011;61072;47.808;7.636;2022-12-07T23:43:46;9.57;;;4.63;;
21030;SDS011;61072;47.808;7.636;2022-12-07T23:46:18;6.53;;;3.92;;
21030;SDS011;61072;47.808;7.636;2022-12-07T23:48:46;5.05;;;3.45;;